Aérodrome :
LOGIN :

S'inscrire | Disclaimer

   EN    FR    IT 

 










Légende :    VFR   VFR Marginal   IFR   IFR Intensif   IFR Très Intensif
Visi : 
Plafond : 
>= 8 km
>= 3000ft
5 à 8 km
1000 à 3000 ft
1500m à 5 km
500 à 1000 ft
800 à 1500m
200 à 500 ft
< 800m
< 200 ft
Symboles :   Orages  Brouillard  Fortes neiges  Fortes précipitations  Vent > 20 kt
SIGMETs :   Divers  Orages  Givrage  Turbulence  Onde Orograph.  Cendres Volcan.







- Altitude de l'aérodrome : 194 ft


EBCV - Chièvres

DERNIER METAR :
  • 152125Z AUTO 12003KT 9999 NCD 12/09 Q1015 BLU

METARs EXPIRÉS :
  • 152118Z AUTO 12003KT 4800 NCD 12/09 Q1015 GRN
  • 152104Z AUTO 12003KT 7000 NCD 12/10 Q1015 WHT
  • 152043Z AUTO VRB02KT 9999 NCD 12/10 Q1015 BLU
  • 152025Z AUTO 13003KT 3000 NCD 13/10 Q1015 YLO
  • 152024Z AUTO 12003KT 4700 NCD 13/10 Q1015 GRN
  • 152003Z AUTO 11003KT 3100 NCD 14/11 Q1015 YLO
  • 151925Z AUTO 12003KT 9999 NCD 14/11 Q1014 BLU
  • 151915Z AUTO 12003KT 4800 BR NCD 15/11 Q1014 GRN
  • 151914Z AUTO 12003KT 5000 BR NCD 15/11 Q1014 WHT
  • 151903Z AUTO 11003KT 1400 BR NCD 15/11 Q1014 AMB

TAF TAF EBCV
Valide du 15 à 19h jusqu'au 16 à 07h UTC


151551Z 1519/1607 VRB03KT 9999 FEW300
PROB30
TEMPO 1603/1607 5000 BR SCT250 BY EBWM
Pas de NOTAMs connus pour ce terrain.



MET'MAP, la Météo Aéronautique d'un coup d'oeil ! - Copyright ORBIFLY Décembre 2007 - Disclaimer

ORBIFLY MET'MAP TEAM :

Programmation & Développement : Alexandra Zaïnal
Conception & Développement : Baudouin d'Aumeries
Co-Programmation & Développement : Marc-Olivier Méhu
Soutien technique & logistique : Manuel Goepfert

Contact : metmap@orbifly.com




SOURCES & CREDITS :

   NOAA